Time;durP1;ratioP1;P1;durP2;ratioP2;P2;SDS_P1;SDS_P2;PMS_P1;PMS_P2;Temp;Humidity;BMP_temperature;BMP_pressure;BME280_temperature;BME280_humidity;BME280_pressure;Samples;Min_cycle;Max_cycle;Signal;HPM_P1;HPM_P2
2021/08/31 02:46:27;;;;;;;5.60;1.30;;;14.40;99.90;;;;;;6021435;23;89310;-75
2021/08/31 02:48:52;;;;;;;2.80;0.90;;;14.40;99.90;;;;;;4911353;28;89275;-75
2021/08/31 02:51:18;;;;;;;5.15;1.30;;;14.40;99.90;;;;;;4923149;28;87054;-75
2021/08/31 02:53:43;;;;;;;3.33;1.30;;;14.40;99.90;;;;;;4922029;28;87684;-75
2021/08/31 02:56:09;;;;;;;3.88;1.23;;;14.40;99.90;;;;;;4919984;28;88559;-75
2021/08/31 02:58:35;;;;;;;2.88;1.10;;;14.40;99.90;;;;;;4918745;28;88422;-74
2021/08/31 03:01:28;;;;;;;4.10;1.10;;;14.40;99.90;;;;;;4918631;28;87196;-74
2021/08/31 03:03:54;;;;;;;3.55;1.17;;;14.40;99.90;;;;;;4918984;28;87450;-74
2021/08/31 03:06:20;;;;;;;2.53;0.93;;;14.40;99.90;;;;;;4918331;28;87794;-74
2021/08/31 03:08:45;;;;;;;3.90;0.93;;;14.50;99.90;;;;;;4918177;28;87485;-74
2021/08/31 03:11:11;;;;;;;2.78;1.13;;;14.40;99.90;;;;;;4918353;28;87016;-73
2021/08/31 03:13:36;;;;;;;3.00;1.10;;;14.40;99.90;;;;;;4916543;28;86293;-73
2021/08/31 03:16:02;;;;;;;2.75;1.10;;;14.50;99.90;;;;;;4918840;28;88295;-74
2021/08/31 03:18:28;;;;;;;3.13;1.23;;;14.50;99.90;;;;;;4919131;28;88283;-74
2021/08/31 03:20:54;;;;;;;2.88;1.00;;;14.50;99.90;;;;;;4918400;28;88418;-73
2021/08/31 03:23:19;;;;;;;5.60;1.15;;;14.50;99.90;;;;;;4917764;28;86719;-74
2021/08/31 03:25:45;;;;;;;2.65;1.08;;;14.50;99.90;;;;;;4916015;28;87231;-74
2021/08/31 03:28:11;;;;;;;4.28;1.27;;;14.40;99.90;;;;;;4919056;28;86906;-74
2021/08/31 03:30:37;;;;;;;4.82;1.17;;;14.40;99.90;;;;;;4919134;28;86900;-75
2021/08/31 03:33:03;;;;;;;2.53;1.20;;;14.50;99.90;;;;;;4919083;28;86938;-73
2021/08/31 03:35:28;;;;;;;3.22;1.05;;;14.50;99.90;;;;;;4914726;28;87394;-74
2021/08/31 03:37:54;;;;;;;4.07;1.38;;;14.50;99.90;;;;;;4919851;28;87960;-75
2021/08/31 03:40:20;;;;;;;2.70;1.02;;;14.50;99.90;;;;;;4919952;28;87085;-74
2021/08/31 03:42:47;;;;;;;5.18;1.40;;;14.50;99.90;;;;;;4926780;28;87015;-74
2021/08/31 03:45:13;;;;;;;3.60;1.13;;;14.50;99.90;;;;;;4919258;28;88124;-75
2021/08/31 03:47:39;;;;;;;3.85;1.60;;;14.50;99.90;;;;;;4919657;28;88580;-74
2021/08/31 03:50:05;;;;;;;5.10;1.75;;;14.50;99.90;;;;;;4919228;28;87421;-75
2021/08/31 03:52:31;;;;;;;4.22;1.77;;;14.40;99.90;;;;;;4914308;28;87101;-75
2021/08/31 03:54:57;;;;;;;3.47;1.10;;;14.40;99.90;;;;;;4911927;28;88244;-74
2021/08/31 03:57:22;;;;;;;3.45;1.52;;;14.40;99.90;;;;;;4914800;28;86934;-74
2021/08/31 03:59:48;;;;;;;4.15;1.70;;;14.40;99.90;;;;;;4918264;28;86975;-74
2021/08/31 04:02:15;;;;;;;4.45;1.85;;;14.50;99.90;;;;;;4913718;28;86614;-75
2021/08/31 04:04:40;;;;;;;4.25;1.73;;;14.40;99.90;;;;;;4914759;28;87630;-75
2021/08/31 04:07:06;;;;;;;4.30;1.63;;;14.40;99.90;;;;;;4917302;28;87160;-74
2021/08/31 04:09:32;;;;;;;5.03;1.70;;;14.40;99.90;;;;;;4917112;28;88556;-74
2021/08/31 04:11:57;;;;;;;6.13;1.88;;;14.40;99.90;;;;;;4917887;28;86807;-73
2021/08/31 04:14:23;;;;;;;3.47;1.73;;;14.50;99.90;;;;;;4917204;28;87038;-75
2021/08/31 04:16:49;;;;;;;4.28;1.60;;;14.50;99.90;;;;;;4917936;28;87395;-73
2021/08/31 04:19:14;;;;;;;4.35;1.52;;;14.50;99.90;;;;;;4918322;28;86912;-74
2021/08/31 04:21:40;;;;;;;4.38;2.03;;;14.50;99.90;;;;;;4917813;28;87071;-74
2021/08/31 04:24:06;;;;;;;4.78;1.88;;;14.50;99.90;;;;;;4914532;28;86959;-74
2021/08/31 04:26:32;;;;;;;5.40;1.98;;;14.50;99.90;;;;;;4918638;28;86561;-75
2021/08/31 04:28:57;;;;;;;4.10;1.33;;;14.30;99.90;;;;;;4917299;28;87061;-74
2021/08/31 04:31:23;;;;;;;4.75;1.40;;;14.30;99.90;;;;;;4918143;28;87347;-75
2021/08/31 04:33:52;;;;;;;3.15;1.40;;;14.20;99.90;;;;;;4916814;28;89253;-75
2021/08/31 04:36:19;;;;;;;3.92;1.40;;;14.20;99.90;;;;;;4914340;28;87567;-74
2021/08/31 04:38:44;;;;;;;4.95;1.40;;;14.30;99.90;;;;;;4916910;28;87127;-74
2021/08/31 04:41:11;;;;;;;4.50;1.40;;;14.40;99.90;;;;;;4917060;28;87138;-74
2021/08/31 04:43:37;;;;;;;3.30;1.13;;;14.40;99.90;;;;;;4915928;28;87780;-75
2021/08/31 04:46:03;;;;;;;4.18;1.23;;;14.50;99.90;;;;;;4918154;28;87048;-75
2021/08/31 04:48:29;;;;;;;5.15;1.50;;;14.40;99.90;;;;;;4917102;28;87509;-75
2021/08/31 04:50:55;;;;;;;3.35;1.30;;;14.40;99.90;;;;;;4918101;28;86786;-75
2021/08/31 04:53:22;;;;;;;3.10;1.23;;;14.40;99.90;;;;;;4913363;28;87612;-75
2021/08/31 04:55:48;;;;;;;4.93;1.40;;;14.30;99.90;;;;;;4916192;28;87097;-75
2021/08/31 04:58:14;;;;;;;3.10;0.80;;;14.20;99.90;;;;;;4916684;28;87976;-75
2021/08/31 05:00:40;;;;;;;1.80;0.55;;;14.20;99.90;;;;;;4917926;28;87380;-74
2021/08/31 05:03:05;;;;;;;3.72;0.50;;;14.30;99.90;;;;;;4916749;28;87822;-74
2021/08/31 05:05:31;;;;;;;3.58;0.60;;;14.30;99.90;;;;;;4917254;28;86996;-75
2021/08/31 05:07:57;;;;;;;2.03;0.57;;;14.40;99.90;;;;;;4916700;28;87173;-74
2021/08/31 05:10:23;;;;;;;3.35;0.77;;;14.40;99.90;;;;;;4917544;28;87004;-74
2021/08/31 05:12:48;;;;;;;2.28;0.43;;;14.50;99.90;;;;;;4916512;28;88973;-74
2021/08/31 05:15:14;;;;;;;2.38;0.38;;;14.50;99.90;;;;;;4913961;28;86412;-74
2021/08/31 05:17:40;;;;;;;3.17;0.50;;;14.50;99.90;;;;;;4915893;28;87202;-74
2021/08/31 05:20:07;;;;;;;1.77;0.38;;;14.40;99.90;;;;;;4917301;28;87165;-75
2021/08/31 05:22:33;;;;;;;3.45;0.47;;;14.50;99.90;;;;;;4916806;28;89096;-75
2021/08/31 05:25:02;;;;;;;1.30;0.30;;;14.60;99.90;;;;;;4916201;28;87932;-75
2021/08/31 05:27:28;;;;;;;1.92;0.35;;;14.60;99.90;;;;;;4916663;28;86959;-74
2021/08/31 05:29:54;;;;;;;2.17;0.25;;;14.60;99.90;;;;;;4916366;28;88318;-74
2021/08/31 05:32:20;;;;;;;3.33;0.47;;;14.60;99.90;;;;;;4916370;28;87413;-74
2021/08/31 05:34:46;;;;;;;1.65;0.20;;;14.60;99.90;;;;;;4910973;28;87589;-74
2021/08/31 05:37:12;;;;;;;2.67;0.38;;;14.60;99.90;;;;;;4916852;28;86962;-74
2021/08/31 05:39:38;;;;;;;3.50;0.35;;;14.50;99.90;;;;;;4917204;28;86757;-73
2021/08/31 05:42:06;;;;;;;3.63;0.40;;;14.50;99.90;;;;;;4916020;28;87531;-74
2021/08/31 05:44:33;;;;;;;3.17;0.40;;;14.50;99.90;;;;;;4911527;28;87555;-74
2021/08/31 05:46:59;;;;;;;3.25;0.60;;;14.50;99.90;;;;;;4915877;28;88010;-74
2021/08/31 05:49:29;;;;;;;2.35;0.40;;;14.50;99.90;;;;;;4916638;28;88878;-74
2021/08/31 05:51:56;;;;;;;2.30;0.40;;;14.50;99.90;;;;;;4915644;28;87703;-75
2021/08/31 05:54:21;;;;;;;2.63;0.52;;;14.50;99.90;;;;;;4917041;28;86740;-74
2021/08/31 05:56:50;;;;;;;2.30;0.70;;;14.60;99.90;;;;;;4916834;28;86936;-75
2021/08/31 05:59:16;;;;;;;2.13;0.68;;;14.60;99.90;;;;;;4916360;28;87097;-74
2021/08/31 06:01:44;;;;;;;2.90;1.10;;;14.70;99.90;;;;;;4916457;28;87439;-74
2021/08/31 06:04:10;;;;;;;4.90;0.77;;;14.90;99.90;;;;;;4915842;28;87415;-74
2021/08/31 06:06:36;;;;;;;6.53;0.90;;;15.00;99.90;;;;;;4914945;28;87416;-73
2021/08/31 06:09:01;;;;;;;1.55;0.45;;;15.10;99.90;;;;;;4915269;28;87237;-74
2021/08/31 06:11:29;;;;;;;2.05;0.40;;;15.10;99.90;;;;;;4911057;28;88286;-75
2021/08/31 06:13:55;;;;;;;1.40;0.30;;;15.20;99.90;;;;;;4913418;28;87489;-76
2021/08/31 06:16:21;;;;;;;2.38;0.38;;;15.30;99.90;;;;;;4912174;28;87041;-75
2021/08/31 06:18:47;;;;;;;2.40;0.47;;;15.40;99.90;;;;;;4911378;28;87148;-76
2021/08/31 06:21:12;;;;;;;1.00;0.20;;;16.30;99.90;;;;;;4917798;28;87274;-77
2021/08/31 06:23:38;;;;;;;1.50;0.20;;;19.00;99.90;;;;;;4915597;28;87747;-78
2021/08/31 06:26:04;;;;;;;1.40;0.30;;;20.80;99.90;;;;;;4914836;28;86830;-78
2021/08/31 06:28:30;;;;;;;1.10;0.20;;;20.60;99.90;;;;;;4914580;28;86226;-77
2021/08/31 06:30:55;;;;;;;0.85;0.13;;;19.90;99.90;;;;;;4896458;28;87511;-76
2021/08/31 06:33:21;;;;;;;0.68;0.10;;;19.20;99.90;;;;;;4916552;28;87552;-76
2021/08/31 06:35:47;;;;;;;0.75;0.10;;;18.60;99.90;;;;;;4917040;28;89722;-77
2021/08/31 06:38:12;;;;;;;1.05;0.20;;;18.00;99.90;;;;;;4918527;28;87152;-77
2021/08/31 06:40:38;;;;;;;1.58;0.20;;;17.70;99.90;;;;;;4919121;28;88202;-76
2021/08/31 06:43:04;;;;;;;1.02;0.10;;;17.40;99.90;;;;;;4916306;28;87998;-76
2021/08/31 06:45:29;;;;;;;1.00;0.10;;;17.00;99.90;;;;;;4913400;28;87115;-76
2021/08/31 06:47:55;;;;;;;1.05;0.20;;;16.80;99.90;;;;;;4910959;28;87204;-76
2021/08/31 06:50:21;;;;;;;0.70;0.20;;;16.80;99.90;;;;;;4916638;28;87424;-76
2021/08/31 06:52:47;;;;;;;0.50;0.10;;;16.80;99.90;;;;;;4917557;28;86412;-75
2021/08/31 06:55:14;;;;;;;1.80;0.13;;;16.70;99.90;;;;;;4912670;28;87970;-75
2021/08/31 06:57:40;;;;;;;0.98;0.20;;;16.70;99.90;;;;;;4913389;28;87109;-75
2021/08/31 07:00:08;;;;;;;0.40;0.13;;;16.60;99.90;;;;;;4917766;28;88050;-72
2021/08/31 07:02:34;;;;;;;1.20;0.10;;;16.70;99.90;;;;;;4915893;28;88044;-75
2021/08/31 07:04:59;;;;;;;1.13;0.20;;;16.70;99.90;;;;;;4913992;28;86953;-75
2021/08/31 07:07:25;;;;;;;1.27;0.28;;;16.80;99.90;;;;;;4915480;28;86955;-75
2021/08/31 07:09:51;;;;;;;2.88;0.20;;;17.10;99.90;;;;;;4911259;28;86745;-75
2021/08/31 07:12:17;;;;;;;4.13;0.40;;;17.30;99.90;;;;;;4916426;28;88018;-75
2021/08/31 07:14:42;;;;;;;2.20;0.40;;;17.30;99.90;;;;;;4913162;28;87022;-75
2021/08/31 07:17:08;;;;;;;1.05;0.30;;;17.20;99.90;;;;;;4913592;28;86218;-75
2021/08/31 07:19:34;;;;;;;1.30;0.30;;;17.10;99.90;;;;;;4915033;28;87720;-75
2021/08/31 07:22:00;;;;;;;3.72;0.20;;;17.20;99.90;;;;;;4919874;28;87228;-76
2021/08/31 07:24:25;;;;;;;1.63;0.20;;;17.80;99.90;;;;;;4916864;28;87518;-76
2021/08/31 07:26:51;;;;;;;2.78;0.28;;;18.40;99.90;;;;;;4911934;28;88449;-75
2021/08/31 07:29:17;;;;;;;2.72;0.20;;;19.10;99.90;;;;;;4911233;28;87311;-79
2021/08/31 07:31:43;;;;;;;1.77;0.22;;;20.10;99.90;;;;;;4912135;28;87203;-77
2021/08/31 07:34:09;;;;;;;1.60;0.35;;;21.30;99.90;;;;;;4907572;28;87874;-77
2021/08/31 07:36:35;;;;;;;1.17;0.30;;;22.80;98.60;;;;;;4908819;28;87108;-75
2021/08/31 07:39:02;;;;;;;1.30;0.40;;;24.90;94.50;;;;;;4910176;28;88272;-75
2021/08/31 07:41:27;;;;;;;2.30;0.40;;;27.60;76.10;;;;;;4916749;28;88287;-76
2021/08/31 07:43:54;;;;;;;1.40;0.30;;;27.80;70.80;;;;;;4917352;28;87156;-76
2021/08/31 07:46:20;;;;;;;3.30;0.38;;;26.20;68.70;;;;;;4918279;28;87324;-75
2021/08/31 07:48:47;;;;;;;1.00;0.22;;;24.50;77.00;;;;;;4916201;28;89249;-75
2021/08/31 07:51:13;;;;;;;1.08;0.25;;;23.40;79.50;;;;;;4911838;28;88467;-75
2021/08/31 07:53:39;;;;;;;1.58;0.20;;;23.00;82.00;;;;;;4918157;28;87035;-75
2021/08/31 07:56:05;;;;;;;2.40;0.30;;;24.10;84.90;;;;;;4919157;28;87146;-78
2021/08/31 07:58:33;;;;;;;0.90;0.50;;;30.10;72.80;;;;;;4918751;28;87087;-76
2021/08/31 08:00:59;;;;;;;2.45;0.65;;;35.10;54.40;;;;;;4919038;28;87363;-76
2021/08/31 08:03:25;;;;;;;1.42;0.80;;;36.40;50.20;;;;;;4918873;28;86947;-76
2021/08/31 08:05:51;;;;;;;3.08;0.85;;;37.20;46.50;;;;;;4919431;28;86263;-76
2021/08/31 08:08:17;;;;;;;3.38;1.10;;;35.00;45.80;;;;;;4914733;28;88064;-76
2021/08/31 08:10:43;;;;;;;2.78;0.88;;;33.10;48.50;;;;;;4918798;28;87479;-77
2021/08/31 08:13:09;;;;;;;1.65;0.80;;;34.30;52.70;;;;;;4913790;28;88278;-77
2021/08/31 08:15:34;;;;;;;2.47;1.25;;;39.50;47.50;;;;;;4919055;28;87050;-77
2021/08/31 08:18:00;;;;;;;2.42;1.33;;;41.80;39.20;;;;;;4919045;28;87041;-77
2021/08/31 08:20:27;;;;;;;2.17;1.42;;;43.30;35.60;;;;;;4915531;28;87053;-76
2021/08/31 08:22:52;;;;;;;2.22;1.60;;;44.50;34.30;;;;;;4917220;28;87109;-75
2021/08/31 08:25:18;;;;;;;3.22;1.88;;;44.00;32.30;;;;;;4918553;28;88190;-75
2021/08/31 08:27:45;;;;;;;2.72;1.75;;;43.20;34.90;;;;;;4917395;28;87045;-75
2021/08/31 08:30:11;;;;;;;2.78;1.65;;;44.30;34.70;;;;;;4914078;28;86854;-75
2021/08/31 08:32:37;;;;;;;3.40;1.83;;;43.70;33.20;;;;;;4912086;28;87826;-78
2021/08/31 08:35:04;;;;;;;2.28;1.23;;;40.10;34.70;;;;;;4917354;28;86865;-77
2021/08/31 08:37:30;;;;;;;1.90;1.10;;;36.20;38.30;;;;;;4917589;28;87975;-77
2021/08/31 08:39:55;;;;;;;2.17;1.23;;;33.00;43.00;;;;;;4918187;28;88216;-77
2021/08/31 08:42:21;;;;;;;1.92;1.60;;;31.50;45.40;;;;;;4917736;28;87219;-77
2021/08/31 08:44:47;;;;;;;2.33;1.48;;;34.60;43.90;;;;;;4917658;28;87107;-77
2021/08/31 08:47:14;;;;;;;1.70;1.45;;;39.50;38.80;;;;;;4916932;28;87516;-74
2021/08/31 08:49:40;;;;;;;1.63;1.42;;;44.20;34.30;;;;;;4918514;28;87612;-77
2021/08/31 08:52:06;;;;;;;3.08;1.77;;;47.30;33.20;;;;;;4917995;28;87021;-77
2021/08/31 08:54:32;;;;;;;2.38;2.17;;;49.90;30.30;;;;;;4914428;28;86318;-78
2021/08/31 08:56:58;;;;;;;3.00;2.33;;;48.60;30.00;;;;;;4917830;28;87787;-77
2021/08/31 08:59:24;;;;;;;2.47;2.28;;;47.50;29.20;;;;;;4911640;28;87270;-78
2021/08/31 09:01:53;;;;;;;2.42;2.05;;;48.20;29.40;;;;;;4912366;28;87970;-78
2021/08/31 09:04:40;;;;;;;2.60;2.40;;;49.80;29.10;;;;;;4917106;28;87089;-79
2021/08/31 09:07:17;;;;;;;4.57;3.13;;;50.80;27.80;;;;;;4916908;28;87704;-75
2021/08/31 09:09:43;;;;;;;2.97;2.72;;;51.30;28.00;;;;;;4914763;28;87196;-78
2021/08/31 09:12:28;;;;;;;3.97;3.00;;;51.50;27.20;;;;;;4916338;28;86894;-76
2021/08/31 09:14:54;;;;;;;3.45;3.15;;;51.80;27.50;;;;;;4918198;28;87326;-77
2021/08/31 09:17:20;;;;;;;3.22;2.92;;;51.80;27.60;;;;;;4918866;28;87781;-79
2021/08/31 09:19:45;;;;;;;3.55;3.25;;;49.60;27.10;;;;;;4918940;28;87236;-76
2021/08/31 09:22:14;;;;;;;4.38;1.92;;;46.50;28.60;;;;;;4912958;28;87216;-77
2021/08/31 09:24:41;;;;;;;4.00;3.10;;;46.90;28.60;;;;;;4916561;28;87358;-77
2021/08/31 09:27:06;;;;;;;3.15;2.90;;;49.20;28.30;;;;;;4917656;28;88352;-77
2021/08/31 09:29:39;;;;;;;3.55;2.90;;;49.60;27.30;;;;;;4917615;28;88876;-78
2021/08/31 09:32:09;;;;;;;3.15;2.92;;;49.50;27.70;;;;;;4910853;28;87414;-77
2021/08/31 09:34:40;;;;;;;2.85;2.65;;;50.90;27.50;;;;;;4914568;28;88859;-76
2021/08/31 09:37:24;;;;;;;3.55;3.25;;;51.80;26.30;;;;;;4917695;28;88436;-74
2021/08/31 09:40:08;;;;;;;2.75;2.45;;;51.70;26.10;;;;;;4918536;28;87256;-77
2021/08/31 09:42:50;;;;;;;3.15;2.85;;;52.40;25.90;;;;;;4918325;28;86875;-78
2021/08/31 09:45:25;;;;;;;3.75;3.42;;;53.00;25.90;;;;;;4913263;28;86333;-76
2021/08/31 09:47:52;;;;;;;3.80;3.03;;;54.60;26.30;;;;;;4917198;28;87087;-77
2021/08/31 09:50:32;;;;;;;4.85;4.45;;;56.10;25.70;;;;;;4918103;28;87876;-74
2021/08/31 09:53:09;;;;;;;3.97;3.67;;;57.60;25.40;;;;;;4917775;28;87712;-76
2021/08/31 09:55:36;;;;;;;3.28;2.97;;;53.00;25.90;;;;;;4915131;28;87310;-77
2021/08/31 09:58:22;;;;;;;3.67;2.88;;;46.30;28.70;;;;;;4919293;28;88166;-77
2021/08/31 10:00:49;;;;;;;4.15;2.50;;;40.10;32.50;;;;;;4919815;28;87761;-77
2021/08/31 10:03:16;;;;;;;3.15;2.55;;;35.50;37.20;;;;;;4916949;28;87029;-77
2021/08/31 10:05:44;;;;;;;3.05;2.33;;;32.40;40.90;;;;;;4920690;28;87445;-77
2021/08/31 10:08:10;;;;;;;4.28;2.55;;;30.40;44.30;;;;;;4921361;28;88264;-79
2021/08/31 10:10:38;;;;;;;2.85;1.83;;;28.90;47.10;;;;;;4921179;28;87413;-78
2021/08/31 10:13:08;;;;;;;3.15;2.03;;;27.80;49.40;;;;;;4922293;28;87036;-77
2021/08/31 10:15:36;;;;;;;4.40;2.15;;;27.40;51.10;;;;;;4921054;28;87163;-79
2021/08/31 10:18:03;;;;;;;3.83;2.08;;;27.40;51.50;;;;;;4919803;28;88975;-77
2021/08/31 10:20:30;;;;;;;4.63;2.17;;;27.30;52.00;;;;;;4920031;28;89457;-78
2021/08/31 10:22:58;;;;;;;5.43;2.28;;;27.20;51.00;;;;;;4917659;28;87182;-79
2021/08/31 10:25:26;;;;;;;3.05;1.88;;;26.80;52.00;;;;;;4919880;28;86476;-82
2021/08/31 10:27:53;;;;;;;4.05;2.35;;;26.40;53.30;;;;;;4917572;28;87362;-79
2021/08/31 10:30:19;;;;;;;4.00;2.25;;;26.10;54.30;;;;;;4917536;28;87645;-76
2021/08/31 10:33:08;;;;;;;3.88;1.92;;;25.70;55.70;;;;;;4918873;28;87151;-77
2021/08/31 10:35:42;;;;;;;4.57;1.83;;;25.60;54.70;;;;;;4919419;28;86402;-78
2021/08/31 10:38:13;;;;;;;4.53;2.05;;;25.70;56.00;;;;;;4921677;28;88103;-79
2021/08/31 10:40:46;;;;;;;2.92;1.63;;;25.50;55.70;;;;;;4918925;28;87382;-80
2021/08/31 10:43:13;;;;;;;3.00;1.75;;;25.90;55.80;;;;;;4917690;28;88079;-76
2021/08/31 10:45:41;;;;;;;3.10;1.52;;;26.10;55.40;;;;;;4917117;28;87063;-78
2021/08/31 10:48:23;;;;;;;2.33;1.38;;;25.80;54.40;;;;;;4915495;28;87358;-75
2021/08/31 10:51:17;;;;;;;2.65;1.48;;;26.30;54.60;;;;;;4918327;28;86997;-76
2021/08/31 10:53:44;;;;;;;2.72;1.35;;;26.70;54.20;;;;;;4917362;28;87149;-77
2021/08/31 10:56:22;;;;;;;4.10;1.95;;;26.90;52.60;;;;;;4918766;28;87055;-79
2021/08/31 10:59:05;;;;;;;4.70;2.00;;;27.30;54.10;;;;;;4921446;28;87845;-77
2021/08/31 11:01:42;;;;;;;2.40;1.50;;;27.30;52.90;;;;;;4920123;28;88310;-78
2021/08/31 11:04:29;;;;;;;4.22;1.67;;;27.00;52.60;;;;;;4921672;28;86964;-79
2021/08/31 11:07:04;;;;;;;2.67;1.73;;;26.70;54.00;;;;;;4917120;28;87090;-77
2021/08/31 11:09:30;;;;;;;5.57;2.30;;;26.30;53.50;;;;;;4922237;28;88376;-77
2021/08/31 11:12:11;;;;;;;4.55;2.13;;;26.00;56.40;;;;;;4920717;28;89525;-80
2021/08/31 11:14:47;;;;;;;4.03;2.05;;;26.30;55.50;;;;;;4922362;28;87399;-76
2021/08/31 11:17:34;;;;;;;3.63;1.90;;;26.10;55.20;;;;;;4923029;28;87030;-73
2021/08/31 11:20:17;;;;;;;3.15;1.85;;;25.10;56.90;;;;;;4921864;28;88221;-73
2021/08/31 11:22:49;;;;;;;1.85;0.95;;;24.60;58.30;;;;;;4922508;28;87012;-75
2021/08/31 11:25:16;;;;;;;4.47;1.20;;;24.30;58.70;;;;;;4922810;28;87180;-76
2021/08/31 11:27:53;;;;;;;3.15;1.27;;;23.60;60.50;;;;;;4921899;28;86205;-75
2021/08/31 11:30:20;;;;;;;1.63;0.95;;;23.50;62.20;;;;;;4921115;28;87124;-73
2021/08/31 11:32:46;;;;;;;3.58;1.23;;;23.70;59.40;;;;;;4922543;28;87601;-74
2021/08/31 11:35:12;;;;;;;5.43;1.80;;;23.20;62.30;;;;;;4915416;28;88429;-75
2021/08/31 11:37:51;;;;;;;3.83;1.27;;;22.60;65.70;;;;;;4919637;28;86926;-75
2021/08/31 11:40:27;;;;;;;3.88;1.23;;;22.70;67.80;;;;;;4921183;28;89384;-74
2021/08/31 11:42:55;;;;;;;;;;;23.30;66.40;;;;;;4920896;28;88305;-74
2021/08/31 11:45:35;;;;;;;1.55;0.80;;;23.50;60.80;;;;;;4917074;28;87112;-75
2021/08/31 11:48:01;;;;;;;2.22;0.98;;;23.60;60.50;;;;;;4917202;28;87135;-74
2021/08/31 11:50:26;;;;;;;1.55;0.75;;;23.70;62.50;;;;;;4917128;28;87390;-74
2021/08/31 11:52:52;;;;;;;1.25;0.43;;;23.90;59.90;;;;;;4911450;28;88346;-74
2021/08/31 11:55:27;;;;;;;1.85;0.68;;;24.00;58.90;;;;;;4919400;28;87119;-76
2021/08/31 11:58:04;;;;;;;1.98;0.57;;;24.00;55.70;;;;;;4905713;28;87047;-76
2021/08/31 12:00:44;;;;;;;1.10;0.60;;;23.80;55.60;;;;;;4909286;28;89199;-74
2021/08/31 12:03:26;;;;;;;0.85;0.32;;;23.50;58.30;;;;;;4916361;28;89152;-77
2021/08/31 12:06:12;;;;;;;0.80;0.40;;;23.40;54.80;;;;;;4918956;28;86971;-75
2021/08/31 12:08:41;;;;;;;0.80;0.22;;;23.30;56.60;;;;;;4909794;28;87006;-75
2021/08/31 12:11:08;;;;;;;2.08;0.38;;;23.20;56.40;;;;;;4918771;28;86908;-73
2021/08/31 12:13:34;;;;;;;1.00;0.40;;;23.00;57.70;;;;;;4919198;28;87569;-75
2021/08/31 12:16:01;;;;;;;0.70;0.28;;;23.00;56.70;;;;;;4919337;28;86935;-75
2021/08/31 12:18:29;;;;;;;1.63;0.38;;;22.90;58.90;;;;;;4919550;28;86510;-74
2021/08/31 12:21:18;;;;;;;2.75;0.50;;;22.90;59.30;;;;;;4918795;28;87648;-75
2021/08/31 12:23:46;;;;;;;1.33;0.65;;;23.10;60.00;;;;;;4918600;28;87711;-75
2021/08/31 12:26:26;;;;;;;2.63;0.68;;;23.30;61.10;;;;;;4915490;28;88031;-77
2021/08/31 12:29:04;;;;;;;2.17;0.52;;;23.10;58.90;;;;;;4916949;28;87126;-75
2021/08/31 12:31:30;;;;;;;0.80;0.22;;;23.00;61.90;;;;;;4911675;28;88704;-75
2021/08/31 12:33:55;;;;;;;1.73;0.32;;;23.00;58.30;;;;;;4917762;28;87956;-75
2021/08/31 12:36:32;;;;;;;1.55;0.90;;;23.10;61.20;;;;;;4918498;28;86945;-74
2021/08/31 12:38:59;;;;;;;1.45;0.52;;;23.20;62.90;;;;;;4911971;28;87417;-74
2021/08/31 12:41:27;;;;;;;1.00;0.32;;;23.00;62.00;;;;;;4912608;28;88881;-76
2021/08/31 12:43:59;;;;;;;1.80;0.32;;;23.10;63.00;;;;;;4918167;28;87959;-74
2021/08/31 12:46:26;;;;;;;1.70;0.52;;;23.00;63.20;;;;;;4917071;28;87046;-75
2021/08/31 12:49:13;;;;;;;0.88;0.40;;;23.00;58.60;;;;;;4917775;28;87559;-75
2021/08/31 12:51:57;;;;;;;1.85;0.55;;;22.80;58.10;;;;;;4916994;28;88668;-74
2021/08/31 12:54:26;;;;;;;1.38;0.43;;;22.80;60.20;;;;;;4917182;28;88062;-74
2021/08/31 12:56:54;;;;;;;1.67;0.32;;;22.80;59.30;;;;;;4917879;28;87016;-75
2021/08/31 12:59:32;;;;;;;1.70;0.60;;;22.60;61.40;;;;;;4918673;28;86811;-76
2021/08/31 13:01:59;;;;;;;1.63;0.52;;;22.70;63.10;;;;;;4917577;28;87419;-74
2021/08/31 13:04:24;;;;;;;1.35;0.60;;;22.80;62.10;;;;;;4917773;28;87603;-75
2021/08/31 13:06:53;;;;;;;1.48;0.63;;;23.00;61.40;;;;;;4917501;28;87188;-75
2021/08/31 13:09:20;;;;;;;2.35;0.80;;;23.00;61.60;;;;;;4915337;28;86297;-78
2021/08/31 13:11:48;;;;;;;1.80;0.52;;;23.00;60.30;;;;;;4917631;28;88061;-75
2021/08/31 13:14:20;;;;;;;1.50;0.93;;;23.10;61.10;;;;;;4917014;28;88057;-76
2021/08/31 13:16:47;;;;;;;1.33;0.65;;;23.00;61.20;;;;;;4917700;28;87885;-76
2021/08/31 13:19:14;;;;;;;1.58;0.70;;;23.20;59.80;;;;;;4916463;28;86995;-74
2021/08/31 13:21:40;;;;;;;1.52;0.55;;;23.10;59.20;;;;;;4915628;28;88893;-76
2021/08/31 13:24:07;;;;;;;1.92;1.00;;;23.50;59.30;;;;;;4916860;28;86588;-75
2021/08/31 13:26:34;;;;;;;1.65;0.70;;;23.90;57.90;;;;;;4916816;28;87118;-75
2021/08/31 13:29:01;;;;;;;4.03;0.55;;;24.10;58.40;;;;;;4917455;28;87415;-75
2021/08/31 13:31:27;;;;;;;1.65;0.82;;;24.20;58.10;;;;;;4920176;28;87759;-75
2021/08/31 13:33:53;;;;;;;1.88;0.80;;;24.10;57.40;;;;;;4915986;28;88160;-76
2021/08/31 13:36:18;;;;;;;3.75;0.80;;;23.90;57.90;;;;;;4917574;28;86980;-75
2021/08/31 13:38:44;;;;;;;2.08;0.63;;;24.00;60.30;;;;;;4916279;28;86956;-75
2021/08/31 13:41:10;;;;;;;2.00;1.00;;;24.00;60.70;;;;;;4912792;28;88348;-76
2021/08/31 13:43:36;;;;;;;1.75;0.93;;;24.40;58.90;;;;;;4917561;28;88062;-76
2021/08/31 13:46:06;;;;;;;2.22;0.80;;;24.40;58.10;;;;;;4917138;28;87095;-76
2021/08/31 13:48:32;;;;;;;2.20;0.93;;;24.40;58.30;;;;;;4916361;28;86933;-75
2021/08/31 13:50:58;;;;;;;1.80;0.73;;;24.00;57.90;;;;;;4923613;28;87467;-75
2021/08/31 13:53:24;;;;;;;2.92;0.70;;;24.00;58.50;;;;;;4916969;28;87074;-76
2021/08/31 13:55:51;;;;;;;1.55;0.70;;;24.00;58.10;;;;;;4916961;28;86586;-75
2021/08/31 13:58:19;;;;;;;2.58;1.02;;;24.20;58.10;;;;;;4916811;28;85958;-76
2021/08/31 14:00:45;;;;;;;1.45;0.70;;;23.80;61.80;;;;;;4917198;28;87528;-75
2021/08/31 14:03:11;;;;;;;1.85;0.73;;;23.20;59.90;;;;;;4911066;28;87576;-76
2021/08/31 14:05:38;;;;;;;1.83;0.90;;;23.10;59.90;;;;;;4915320;28;88004;-75
2021/08/31 14:08:05;;;;;;;1.52;0.73;;;23.10;63.70;;;;;;4921760;28;87080;-76
2021/08/31 14:10:31;;;;;;;1.88;0.93;;;23.00;64.30;;;;;;4920430;28;87408;-75
2021/08/31 14:12:58;;;;;;;2.00;0.68;;;22.90;63.20;;;;;;4920380;28;87322;-75
2021/08/31 14:15:24;;;;;;;2.72;1.20;;;22.90;63.50;;;;;;4920907;28;87084;-76
2021/08/31 14:17:50;;;;;;;3.25;0.98;;;22.90;64.60;;;;;;4920825;28;87051;-75
2021/08/31 14:20:16;;;;;;;2.03;0.93;;;22.60;65.10;;;;;;4920367;28;87186;-76
2021/08/31 14:22:41;;;;;;;1.75;0.80;;;22.50;65.20;;;;;;4919119;28;87071;-75
2021/08/31 14:25:07;;;;;;;1.50;0.73;;;22.50;62.50;;;;;;4921732;28;86952;-76
2021/08/31 14:27:33;;;;;;;1.75;0.60;;;22.50;62.70;;;;;;4919808;28;86921;-76
2021/08/31 14:29:59;;;;;;;4.03;0.65;;;22.50;62.10;;;;;;4920092;28;88631;-77
2021/08/31 14:32:25;;;;;;;2.65;0.80;;;22.50;62.20;;;;;;4919364;28;88219;-75
2021/08/31 14:34:50;;;;;;;3.05;0.82;;;22.30;61.80;;;;;;4923240;28;87049;-75
2021/08/31 14:37:16;;;;;;;4.10;0.60;;;22.10;63.30;;;;;;4919315;28;86940;-75
2021/08/31 14:39:43;;;;;;;3.08;0.70;;;22.10;63.50;;;;;;4920257;28;87365;-74
2021/08/31 14:42:10;;;;;;;1.45;0.57;;;21.90;62.50;;;;;;4920417;28;88161;-74
2021/08/31 14:44:36;;;;;;;2.13;0.65;;;21.60;61.60;;;;;;4919541;28;87101;-74
2021/08/31 14:47:01;;;;;;;1.60;0.80;;;21.40;62.40;;;;;;4919729;28;86376;-74
2021/08/31 14:49:27;;;;;;;1.67;0.65;;;21.20;62.60;;;;;;4919416;28;87076;-75
2021/08/31 14:51:53;;;;;;;2.38;0.65;;;21.30;62.50;;;;;;4919550;28;87278;-76
2021/08/31 14:54:19;;;;;;;1.85;0.90;;;21.20;62.80;;;;;;4919312;28;88047;-74
2021/08/31 14:56:48;;;;;;;1.75;0.50;;;21.10;63.80;;;;;;4919992;28;86948;-76
2021/08/31 14:59:19;;;;;;;1.58;0.75;;;20.90;63.90;;;;;;4923418;28;88139;-76
2021/08/31 15:01:45;;;;;;;3.10;0.90;;;20.70;65.30;;;;;;4914639;28;87179;-75
2021/08/31 15:04:11;;;;;;;3.35;0.75;;;20.60;65.50;;;;;;4920022;28;87055;-75
2021/08/31 15:06:37;;;;;;;3.05;0.70;;;20.50;65.10;;;;;;4917846;28;87162;-77
2021/08/31 15:09:03;;;;;;;2.45;0.63;;;20.30;64.80;;;;;;4918564;28;87750;-77
2021/08/31 15:11:28;;;;;;;1.70;0.52;;;20.20;65.40;;;;;;4914953;28;86889;-77
2021/08/31 15:13:54;;;;;;;1.85;0.85;;;20.30;66.20;;;;;;4919251;28;86951;-77
2021/08/31 15:16:20;;;;;;;1.10;0.50;;;20.30;65.70;;;;;;4914804;28;86935;-77
2021/08/31 15:18:46;;;;;;;3.47;0.93;;;20.20;65.60;;;;;;4917079;28;88736;-78
2021/08/31 15:21:11;;;;;;;1.27;0.40;;;20.20;65.60;;;;;;4919227;28;87807;-76
2021/08/31 15:23:37;;;;;;;1.85;0.73;;;20.20;67.90;;;;;;4919928;28;87156;-77
2021/08/31 15:26:02;;;;;;;3.30;0.80;;;20.20;65.40;;;;;;4915151;28;86997;-76
2021/08/31 15:28:29;;;;;;;2.22;0.45;;;20.10;66.30;;;;;;4917653;28;87566;-76
2021/08/31 15:30:55;;;;;;;1.90;0.63;;;20.10;65.20;;;;;;4916761;28;86972;-77
2021/08/31 15:33:20;;;;;;;2.85;0.80;;;20.20;65.10;;;;;;4918285;28;86894;-76
2021/08/31 15:35:46;;;;;;;1.95;0.77;;;20.50;64.80;;;;;;4913959;28;86356;-76
2021/08/31 15:38:12;;;;;;;1.70;0.70;;;20.60;65.60;;;;;;4916886;28;87143;-76